Terminal Aerodrome Forecast
Issued by NWS

Home | Current Version | Previous Version | Text Only | Print | Product List | Glossary On
Versions: 1 2 3 4 5 6 7 8 9 10 11 12
000
FTUS45 KRIW 060500
TAFWRL
TAF
KWRL 060529Z 0606/0706 34011KT P6SM VCSH SCT050 BKN070
     FM061100 34011KT P6SM -RA BKN030
     FM061800 33012G22KT P6SM VCSH BKN030
     FM070100 31009KT P6SM BKN050=

USA.gov is the U.S. government's official web portal to all federal, state and local government web resources and services.